Time;durP1;ratioP1;P1;durP2;ratioP2;P2;SDS_P1;SDS_P2;PMS_P1;PMS_P2;Temp;Humidity;BMP_temperature;BMP_pressure;BME280_temperature;BME280_humidity;BME280_pressure;Samples;Min_cycle;Max_cycle;Signal;HPM_P1;HPM_P2
2023/09/19 00:00:58;;;;;;;6.68;2.15;;;18.30;99.90;;;;;;2066449;28;20122;-75
2023/09/19 00:01:59;;;;;;;15.85;3.10;;;18.30;99.90;;;;;;2065460;28;20684;-75
2023/09/19 00:03:00;;;;;;;6.63;2.22;;;18.30;99.90;;;;;;2075170;28;20171;-75
2023/09/19 00:04:01;;;;;;;5.97;2.47;;;18.30;99.90;;;;;;2075755;28;20014;-75
2023/09/19 00:05:03;;;;;;;7.97;2.45;;;18.30;99.90;;;;;;2074731;28;20048;-75
2023/09/19 00:06:04;;;;;;;7.90;2.30;;;18.20;99.90;;;;;;2068378;28;20540;-75
2023/09/19 00:07:05;;;;;;;5.68;2.75;;;18.30;99.90;;;;;;2068776;28;20480;-75
2023/09/19 00:08:07;;;;;;;6.63;2.25;;;18.30;99.90;;;;;;2075524;28;20025;-75
2023/09/19 00:09:10;;;;;;;14.88;2.75;;;18.20;99.90;;;;;;2068124;28;20148;-75
2023/09/19 00:10:11;;;;;;;4.88;3.00;;;18.20;99.90;;;;;;2069131;28;20033;-74
2023/09/19 00:11:12;;;;;;;9.38;4.57;;;18.20;99.90;;;;;;2075311;28;20116;-75
2023/09/19 00:12:13;;;;;;;7.53;3.88;;;18.20;99.90;;;;;;2075673;28;20030;-75
2023/09/19 00:13:13;;;;;;;6.95;3.42;;;18.20;99.90;;;;;;2074559;28;20034;-75
2023/09/19 00:14:14;;;;;;;8.18;3.38;;;18.20;99.90;;;;;;2076477;28;20030;-75
2023/09/19 00:15:17;;;;;;;10.07;3.80;;;18.20;99.90;;;;;;2075371;28;20087;-75
2023/09/19 00:16:19;;;;;;;4.97;2.38;;;18.20;99.90;;;;;;2067742;28;20053;-75
2023/09/19 00:17:19;;;;;;;7.15;2.50;;;18.20;99.90;;;;;;2068635;28;20041;-75
2023/09/19 00:18:21;;;;;;;6.15;2.35;;;18.20;99.90;;;;;;2076279;28;20100;-75
2023/09/19 00:19:23;;;;;;;7.13;2.47;;;18.10;99.90;;;;;;2075044;28;20033;-75
2023/09/19 00:20:24;;;;;;;8.00;3.03;;;18.10;99.90;;;;;;2076276;28;20112;-75
2023/09/19 00:21:24;;;;;;;9.23;2.67;;;18.10;99.90;;;;;;2065945;28;20350;-75
2023/09/19 00:22:26;;;;;;;9.35;2.80;;;18.10;99.90;;;;;;2070102;28;20091;-75
2023/09/19 00:23:28;;;;;;;7.28;2.38;;;18.00;99.90;;;;;;2075006;28;20017;-75
2023/09/19 00:24:28;;;;;;;9.93;2.92;;;18.10;99.90;;;;;;2076825;28;20353;-75
2023/09/19 00:25:29;;;;;;;6.93;2.03;;;18.00;99.90;;;;;;2075996;28;20073;-75
2023/09/19 00:26:32;;;;;;;6.22;2.30;;;18.00;99.90;;;;;;2076150;28;20404;-74
2023/09/19 00:27:33;;;;;;;7.38;2.70;;;18.00;99.90;;;;;;2075373;28;20034;-75
2023/09/19 00:28:35;;;;;;;9.65;3.15;;;18.00;99.90;;;;;;2076486;28;20018;-76
2023/09/19 00:29:35;;;;;;;8.50;2.63;;;18.00;99.90;;;;;;2075471;28;20014;-75
2023/09/19 00:30:38;;;;;;;7.78;2.70;;;18.00;99.90;;;;;;2076493;28;20043;-75
2023/09/19 00:31:39;;;;;;;8.20;3.00;;;18.00;99.90;;;;;;2078256;28;20032;-75
2023/09/19 00:32:40;;;;;;;5.07;2.30;;;18.00;99.90;;;;;;2077230;28;20033;-75
2023/09/19 00:33:41;;;;;;;14.15;3.15;;;18.00;99.90;;;;;;2077838;28;20026;-75
2023/09/19 00:34:42;;;;;;;10.52;2.97;;;18.00;99.90;;;;;;2079006;28;20503;-74
2023/09/19 00:35:53;;;;;;;8.80;2.55;;;18.00;99.90;;;;;;2069801;28;20026;-75
2023/09/19 00:36:54;;;;;;;11.63;2.92;;;17.90;99.90;;;;;;2071102;28;20137;-75
2023/09/19 00:37:55;;;;;;;10.23;2.60;;;17.90;99.90;;;;;;2077538;28;20025;-75
2023/09/19 00:38:56;;;;;;;11.32;2.72;;;17.90;99.90;;;;;;2075974;28;20028;-74
2023/09/19 00:39:56;;;;;;;9.73;2.80;;;17.90;99.90;;;;;;2077355;28;20029;-74
2023/09/19 00:40:57;;;;;;;7.25;2.78;;;17.90;99.90;;;;;;2077846;28;20112;-75
2023/09/19 00:41:58;;;;;;;9.60;2.60;;;17.90;99.90;;;;;;2077531;28;20057;-75
2023/09/19 00:43:01;;;;;;;13.77;3.03;;;17.80;99.90;;;;;;2077189;28;20035;-75
2023/09/19 00:44:03;;;;;;;9.27;2.60;;;17.80;99.90;;;;;;2067205;28;20397;-75
2023/09/19 00:45:05;;;;;;;8.30;2.83;;;17.90;99.90;;;;;;2067249;28;20685;-74
2023/09/19 00:46:07;;;;;;;8.05;2.95;;;17.90;99.90;;;;;;2070749;28;20026;-74
2023/09/19 00:47:09;;;;;;;8.75;2.80;;;17.80;99.90;;;;;;2068588;28;20168;-75
2023/09/19 00:48:10;;;;;;;7.90;2.63;;;17.80;99.90;;;;;;2078100;28;20491;-74
2023/09/19 00:49:11;;;;;;;4.95;2.30;;;17.80;99.90;;;;;;2077619;28;20037;-74
2023/09/19 00:50:14;;;;;;;8.13;2.50;;;17.80;99.90;;;;;;2076696;28;20072;-74
2023/09/19 00:51:19;;;;;;;5.70;2.33;;;17.80;99.90;;;;;;2068498;28;20015;-74
2023/09/19 00:52:19;;;;;;;8.65;2.30;;;17.80;99.90;;;;;;2068415;28;20026;-75
2023/09/19 00:53:23;;;;;;;7.45;2.70;;;17.80;99.90;;;;;;2075878;28;21215;-75
2023/09/19 00:54:25;;;;;;;9.00;2.47;;;17.80;99.90;;;;;;2076817;28;20152;-75
2023/09/19 00:55:29;;;;;;;7.85;2.70;;;17.80;99.90;;;;;;2077315;28;20151;-75
2023/09/19 00:56:30;;;;;;;11.00;2.80;;;17.80;99.90;;;;;;2079655;28;20029;-75
2023/09/19 00:57:32;;;;;;;10.45;2.78;;;17.70;99.90;;;;;;2079166;28;20032;-75
2023/09/19 00:58:35;;;;;;;13.73;2.92;;;17.70;99.90;;;;;;2078615;28;20445;-74
2023/09/19 00:59:35;;;;;;;10.07;2.85;;;17.70;99.90;;;;;;2076386;28;20920;-74
2023/09/19 01:00:37;;;;;;;7.53;2.50;;;17.70;99.90;;;;;;2077585;28;20377;-74
2023/09/19 01:01:39;;;;;;;12.43;3.00;;;17.70;99.90;;;;;;2076954;28;20033;-75
2023/09/19 01:02:41;;;;;;;12.55;3.15;;;17.70;99.90;;;;;;2067962;28;20568;-74
2023/09/19 01:03:43;;;;;;;12.32;3.67;;;17.70;99.90;;;;;;2068096;28;20088;-75
2023/09/19 01:04:45;;;;;;;7.03;3.13;;;17.70;99.90;;;;;;2076951;28;20025;-74
2023/09/19 01:05:45;;;;;;;10.52;3.25;;;17.60;99.90;;;;;;2068955;28;20463;-75
2023/09/19 01:06:46;;;;;;;9.27;3.17;;;17.60;99.90;;;;;;2068789;28;20022;-75
2023/09/19 01:07:49;;;;;;;7.10;3.05;;;17.60;99.90;;;;;;2077194;28;20416;-76
2023/09/19 01:08:50;;;;;;;11.40;2.85;;;17.60;99.90;;;;;;2077886;28;20360;-75
2023/09/19 01:09:52;;;;;;;13.68;3.50;;;17.60;99.90;;;;;;2078441;28;20026;-75
2023/09/19 01:10:59;;;;;;;10.35;2.78;;;17.60;99.90;;;;;;2077676;28;20025;-74
2023/09/19 01:12:03;;;;;;;7.38;2.83;;;17.60;99.90;;;;;;2077090;28;20380;-75
2023/09/19 01:13:21;;;;;;;9.82;3.53;;;17.60;99.90;;;;;;2069768;28;20025;-75
2023/09/19 01:14:37;;;;;;;9.93;2.78;;;17.60;99.90;;;;;;2067400;28;20736;-75
2023/09/19 01:15:51;;;;;;;11.18;3.25;;;17.60;99.90;;;;;;2072756;28;20539;-75
2023/09/19 01:17:22;;;;;;;7.00;2.30;;;17.50;99.90;;;;;;2077231;28;20049;-75
2023/09/19 01:18:28;;;;;;;;;;;17.50;99.90;;;;;;2078657;28;20025;-75
2023/09/19 01:20:07;;;;;;;9.95;3.00;;;17.40;99.90;;;;;;2076091;28;19949;-74
2023/09/19 01:21:23;;;;;;;12.68;3.20;;;17.40;99.90;;;;;;2078783;28;20029;-75
2023/09/19 01:22:54;;;;;;;8.95;2.83;;;17.40;99.90;;;;;;2076958;28;20032;-74
2023/09/19 01:23:57;;;;;;;8.15;2.80;;;17.40;99.90;;;;;;2077840;28;20021;-75
2023/09/19 01:25:00;;;;;;;9.80;3.05;;;17.40;99.90;;;;;;2076435;28;20029;-75
2023/09/19 01:26:19;;;;;;;9.70;2.75;;;17.40;99.90;;;;;;2078260;28;20049;-74
2023/09/19 01:27:20;;;;;;;7.65;2.72;;;17.40;99.90;;;;;;2077764;28;20895;-74
2023/09/19 01:28:29;;;;;;;9.52;3.00;;;17.40;99.90;;;;;;2069642;28;20366;-74
2023/09/19 01:29:36;;;;;;;12.53;2.50;;;17.40;99.90;;;;;;2070403;28;20030;-75
2023/09/19 01:30:43;;;;;;;10.65;3.17;;;17.40;99.90;;;;;;2067315;28;20508;-74
2023/09/19 01:31:45;;;;;;;8.73;2.83;;;17.40;99.90;;;;;;2070863;28;20029;-75
2023/09/19 01:32:46;;;;;;;11.55;2.47;;;17.30;99.90;;;;;;2076881;28;20026;-75
2023/09/19 01:34:01;;;;;;;9.52;2.65;;;17.40;99.90;;;;;;2076047;28;20064;-75
2023/09/19 01:35:04;;;;;;;8.73;2.90;;;17.40;99.90;;;;;;2076843;28;20030;-75
2023/09/19 01:36:05;;;;;;;10.73;2.92;;;17.40;99.90;;;;;;2076766;28;20061;-75
2023/09/19 01:37:05;;;;;;;8.85;2.55;;;17.30;99.90;;;;;;2077649;28;20033;-74
2023/09/19 01:38:09;;;;;;;10.25;2.97;;;17.40;99.90;;;;;;2078384;28;20034;-75
2023/09/19 01:39:13;;;;;;;10.20;3.15;;;17.40;99.90;;;;;;2074547;28;20029;-75
2023/09/19 01:40:17;;;;;;;9.13;3.10;;;17.30;99.90;;;;;;2076811;28;20438;-75
2023/09/19 01:41:25;;;;;;;6.85;2.80;;;17.30;99.90;;;;;;2076291;28;20384;-75
2023/09/19 01:42:44;;;;;;;8.70;2.78;;;17.30;99.90;;;;;;2070987;28;20014;-75
2023/09/19 01:43:47;;;;;;;9.30;2.88;;;17.30;99.90;;;;;;2072096;28;20045;-74
2023/09/19 01:44:47;;;;;;;9.85;2.65;;;17.30;99.90;;;;;;2071697;28;20074;-75
2023/09/19 01:46:05;;;;;;;9.18;2.72;;;17.30;99.90;;;;;;2076723;28;20057;-75
2023/09/19 01:47:37;;;;;;;11.52;2.80;;;17.30;99.90;;;;;;2077626;28;20033;-74
2023/09/19 01:48:47;;;;;;;11.23;2.95;;;17.30;99.90;;;;;;2068675;28;20508;-75
2023/09/19 01:50:03;;;;;;;9.73;2.65;;;17.20;99.90;;;;;;2072098;28;20056;-75
2023/09/19 01:51:06;;;;;;;10.98;3.30;;;17.20;99.90;;;;;;2077803;28;20400;-75
2023/09/19 01:52:19;;;;;;;11.50;2.53;;;17.20;99.90;;;;;;2077059;28;20084;-75
2023/09/19 01:53:57;;;;;;;10.15;3.45;;;17.30;99.90;;;;;;2076015;28;20057;-74
2023/09/19 01:55:09;;;;;;;9.38;2.90;;;17.20;99.90;;;;;;2078291;28;20460;-75
2023/09/19 01:56:21;;;;;;;11.95;2.88;;;17.20;99.90;;;;;;2067928;28;20034;-75
2023/09/19 01:57:51;;;;;;;11.30;2.70;;;17.20;99.90;;;;;;2071787;28;20013;-75
2023/09/19 01:58:58;;;;;;;8.30;2.40;;;17.20;99.90;;;;;;2063798;28;20121;-75
2023/09/19 02:00:08;;;;;;;8.40;2.90;;;17.10;99.90;;;;;;2060898;28;20285;-75
2023/09/19 02:01:13;;;;;;;9.50;2.60;;;17.20;99.90;;;;;;2069370;28;20026;-75
2023/09/19 02:02:14;;;;;;;11.10;2.75;;;17.20;99.90;;;;;;2078242;28;20057;-75
2023/09/19 02:03:16;;;;;;;6.57;2.38;;;17.20;99.90;;;;;;2067953;28;20034;-75
2023/09/19 02:04:16;;;;;;;7.07;2.42;;;17.20;99.90;;;;;;2067084;28;20053;-75
2023/09/19 02:05:24;;;;;;;10.32;3.22;;;17.20;99.90;;;;;;2077211;28;20033;-75
2023/09/19 02:06:25;;;;;;;9.90;3.05;;;17.20;99.90;;;;;;2076935;28;20319;-75
2023/09/19 02:07:27;;;;;;;8.13;2.60;;;17.20;99.90;;;;;;2075121;28;20072;-75
2023/09/19 02:08:29;;;;;;;10.40;2.90;;;17.20;99.90;;;;;;2078256;28;20022;-75
2023/09/19 02:09:29;;;;;;;7.65;2.60;;;17.10;99.90;;;;;;2068295;28;20393;-75
2023/09/19 02:10:30;;;;;;;9.88;2.80;;;17.20;99.90;;;;;;2068355;28;20069;-75
2023/09/19 02:11:30;;;;;;;7.25;2.22;;;17.20;99.90;;;;;;2076373;28;20044;-75
2023/09/19 02:12:32;;;;;;;10.27;2.60;;;17.20;99.90;;;;;;2076494;28;20037;-75
2023/09/19 02:13:33;;;;;;;12.60;2.90;;;17.10;99.90;;;;;;2078344;28;20026;-75
2023/09/19 02:14:35;;;;;;;9.48;2.70;;;17.10;99.90;;;;;;2077111;28;20041;-75
2023/09/19 02:15:37;;;;;;;7.60;2.33;;;17.10;99.90;;;;;;2077318;28;20037;-74
2023/09/19 02:16:38;;;;;;;9.15;2.40;;;17.10;99.90;;;;;;2077964;28;20045;-75
2023/09/19 02:17:39;;;;;;;10.55;3.38;;;17.10;99.90;;;;;;2077112;28;20033;-74
2023/09/19 02:18:40;;;;;;;10.05;2.70;;;17.10;99.90;;;;;;2075493;28;20030;-75
2023/09/19 02:19:40;;;;;;;7.78;2.63;;;17.10;99.90;;;;;;2075043;28;20172;-75
2023/09/19 02:20:41;;;;;;;7.82;2.83;;;17.10;99.90;;;;;;2076313;28;20017;-75
2023/09/19 02:21:42;;;;;;;8.57;2.88;;;17.10;99.90;;;;;;2076325;28;20017;-75
2023/09/19 02:22:44;;;;;;;9.65;3.55;;;17.10;99.90;;;;;;2076712;28;20032;-75
2023/09/19 02:23:47;;;;;;;10.43;3.35;;;17.00;99.90;;;;;;2074735;28;20113;-75
2023/09/19 02:24:48;;;;;;;9.55;3.20;;;17.00;99.90;;;;;;2078035;28;20481;-75
2023/09/19 02:25:53;;;;;;;10.55;3.33;;;17.00;99.90;;;;;;2078045;28;20021;-75
2023/09/19 02:26:54;;;;;;;8.57;2.78;;;17.00;99.90;;;;;;2074504;28;20091;-75
2023/09/19 02:27:58;;;;;;;13.48;3.45;;;17.00;99.90;;;;;;2077548;28;20033;-75
2023/09/19 02:28:59;;;;;;;10.27;2.88;;;17.00;99.90;;;;;;2076522;28;20078;-75
2023/09/19 02:30:04;;;;;;;8.63;2.95;;;17.00;99.90;;;;;;2070661;28;20058;-75
2023/09/19 02:31:07;;;;;;;10.07;2.97;;;16.90;99.90;;;;;;2070674;28;20576;-75
2023/09/19 02:32:09;;;;;;;11.00;2.83;;;16.90;99.90;;;;;;2076327;28;20385;-75
2023/09/19 02:33:10;;;;;;;11.45;3.50;;;16.90;99.90;;;;;;2069370;28;20126;-75
2023/09/19 02:34:11;;;;;;;8.85;2.97;;;17.00;99.90;;;;;;2062697;28;20030;-75
2023/09/19 02:37:16;;;;;;;12.68;3.17;;;16.90;99.90;;;;;;2073616;28;20029;-74
2023/09/19 02:38:21;;;;;;;11.57;3.40;;;16.90;99.90;;;;;;2075890;28;20037;-75
2023/09/19 02:39:23;;;;;;;9.40;3.08;;;16.90;99.90;;;;;;2071571;28;20037;-74
2023/09/19 02:40:25;;;;;;;8.60;2.72;;;16.90;99.90;;;;;;2072149;28;20030;-75
2023/09/19 02:41:26;;;;;;;8.13;2.78;;;16.90;99.90;;;;;;2076789;28;20141;-75
2023/09/19 02:42:26;;;;;;;9.95;2.58;;;16.90;99.90;;;;;;2077080;28;20129;-75
2023/09/19 02:43:27;;;;;;;8.68;2.85;;;16.90;99.90;;;;;;2075018;28;20032;-74
2023/09/19 02:44:28;;;;;;;11.88;3.42;;;16.90;99.90;;;;;;2076171;28;20036;-74
2023/09/19 02:45:29;;;;;;;11.88;3.20;;;16.90;99.90;;;;;;2076826;28;20503;-75
2023/09/19 02:46:30;;;;;;;11.82;3.53;;;16.90;99.90;;;;;;2076915;28;20034;-75
2023/09/19 02:47:31;;;;;;;12.80;3.40;;;16.90;99.90;;;;;;2077191;28;20033;-75
2023/09/19 02:48:32;;;;;;;7.70;2.97;;;16.80;99.90;;;;;;2076393;28;20477;-75
2023/09/19 02:49:32;;;;;;;10.88;3.00;;;16.80;99.90;;;;;;2077505;28;20037;-75
2023/09/19 02:50:33;;;;;;;10.07;3.25;;;16.80;99.90;;;;;;2075243;28;20056;-75
2023/09/19 02:51:34;;;;;;;11.82;3.30;;;16.80;99.90;;;;;;2077268;28;20025;-75
2023/09/19 02:52:34;;;;;;;10.68;3.20;;;16.80;99.90;;;;;;2077239;28;20063;-75
2023/09/19 02:53:35;;;;;;;9.02;2.75;;;16.80;99.90;;;;;;2077721;28;20044;-75
2023/09/19 02:54:36;;;;;;;10.73;3.55;;;16.80;99.90;;;;;;2075971;28;20018;-74
2023/09/19 02:55:38;;;;;;;10.23;2.75;;;16.80;99.90;;;;;;2078504;28;20037;-75
2023/09/19 02:56:38;;;;;;;11.57;2.88;;;16.80;99.90;;;;;;2077908;28;20057;-75
2023/09/19 02:57:42;;;;;;;12.00;3.55;;;16.80;99.90;;;;;;2075633;28;20033;-75
2023/09/19 02:58:43;;;;;;;11.50;3.05;;;16.80;99.90;;;;;;2076789;28;20032;-75
2023/09/19 02:59:44;;;;;;;10.45;3.13;;;16.80;99.90;;;;;;2075869;28;20052;-74
2023/09/19 03:00:51;;;;;;;10.70;3.05;;;16.80;99.90;;;;;;2076535;28;20014;-75
2023/09/19 03:01:54;;;;;;;8.85;2.90;;;16.80;99.90;;;;;;2076007;28;20128;-75
2023/09/19 03:02:55;;;;;;;9.32;2.92;;;16.80;99.90;;;;;;2075686;28;20108;-75
2023/09/19 03:03:55;;;;;;;9.95;2.65;;;16.80;99.90;;;;;;2077143;28;20710;-75
2023/09/19 03:04:56;;;;;;;12.70;3.65;;;16.80;99.90;;;;;;2078824;28;20468;-74
2023/09/19 03:05:58;;;;;;;10.18;2.92;;;16.80;99.90;;;;;;2076570;28;20021;-74
2023/09/19 03:07:00;;;;;;;9.75;2.88;;;16.80;99.90;;;;;;2075881;28;20021;-75
2023/09/19 03:08:01;;;;;;;9.10;3.17;;;16.80;99.90;;;;;;2069394;28;20025;-75
2023/09/19 03:09:02;;;;;;;10.43;2.80;;;16.80;99.90;;;;;;2068551;28;20038;-74
2023/09/19 03:10:05;;;;;;;7.10;3.05;;;16.80;99.90;;;;;;2075456;28;20028;-75
2023/09/19 03:11:07;;;;;;;13.55;3.47;;;16.80;99.90;;;;;;2076478;28;20060;-74
2023/09/19 03:12:08;;;;;;;12.13;3.35;;;16.80;99.90;;;;;;2076640;28;20072;-75
2023/09/19 03:13:09;;;;;;;17.23;2.95;;;16.80;99.90;;;;;;2075417;28;20041;-75
2023/09/19 03:14:10;;;;;;;10.18;3.08;;;16.70;99.90;;;;;;2076845;28;20026;-75
2023/09/19 03:15:11;;;;;;;8.95;2.50;;;16.80;99.90;;;;;;2077065;28;20530;-75
2023/09/19 03:16:15;;;;;;;10.48;2.90;;;16.80;99.90;;;;;;2075848;28;20455;-75
2023/09/19 03:17:15;;;;;;;11.95;3.28;;;16.80;99.90;;;;;;2077140;28;20071;-75
2023/09/19 03:18:16;;;;;;;9.05;2.65;;;16.70;99.90;;;;;;2077251;28;20029;-75
2023/09/19 03:19:16;;;;;;;8.00;2.97;;;16.70;99.90;;;;;;2075062;28;20431;-75
2023/09/19 03:20:17;;;;;;;9.95;2.72;;;16.70;99.90;;;;;;2077658;28;20025;-75
2023/09/19 03:21:19;;;;;;;9.45;3.40;;;16.70;99.90;;;;;;2067725;28;20050;-75
2023/09/19 03:22:20;;;;;;;9.23;2.60;;;16.70;99.90;;;;;;2068291;28;20097;-75
2023/09/19 03:23:21;;;;;;;15.50;4.18;;;16.70;99.90;;;;;;2076316;28;20116;-75
2023/09/19 03:24:23;;;;;;;8.45;3.15;;;16.70;99.90;;;;;;2077941;28;20100;-75
2023/09/19 03:25:24;;;;;;;13.70;4.15;;;16.70;99.90;;;;;;2076469;28;20065;-75
2023/09/19 03:26:26;;;;;;;13.07;3.78;;;16.70;99.90;;;;;;2077398;28;20624;-75
2023/09/19 03:27:27;;;;;;;12.07;4.28;;;16.70;99.90;;;;;;2068186;28;20435;-75
2023/09/19 03:28:27;;;;;;;11.50;4.10;;;16.70;99.90;;;;;;2067729;28;20049;-75
2023/09/19 03:29:28;;;;;;;9.20;3.72;;;16.70;99.90;;;;;;2077441;28;20033;-75
2023/09/19 03:30:28;;;;;;;11.18;3.88;;;16.70;99.90;;;;;;2074129;28;20037;-75
2023/09/19 03:31:30;;;;;;;14.73;3.58;;;16.70;99.90;;;;;;2076364;28;20509;-75
2023/09/19 03:32:31;;;;;;;14.10;4.05;;;16.70;99.90;;;;;;2067001;28;20030;-75
2023/09/19 03:33:32;;;;;;;12.82;4.00;;;16.70;99.90;;;;;;2067965;28;20141;-76
2023/09/19 03:34:33;;;;;;;10.85;2.88;;;16.70;99.90;;;;;;2075946;28;20028;-75
2023/09/19 03:35:34;;;;;;;7.40;2.60;;;16.70;99.90;;;;;;2075935;28;20495;-75
2023/09/19 03:36:35;;;;;;;12.95;3.38;;;16.60;99.90;;;;;;2069600;28;20038;-74
2023/09/19 03:37:36;;;;;;;11.43;3.67;;;16.60;99.90;;;;;;2068890;28;20034;-75
2023/09/19 03:38:37;;;;;;;11.40;2.97;;;16.60;99.90;;;;;;2074203;28;20061;-75
2023/09/19 03:39:37;;;;;;;11.27;3.45;;;16.60;99.90;;;;;;2076256;28;20030;-75
2023/09/19 03:40:38;;;;;;;11.63;2.85;;;16.60;99.90;;;;;;2076087;28;20053;-75
2023/09/19 03:41:38;;;;;;;7.80;3.33;;;16.60;99.90;;;;;;2074980;28;20030;-75
2023/09/19 03:42:40;;;;;;;10.00;2.92;;;16.60;99.90;;;;;;2074932;28;20415;-75
2023/09/19 03:43:40;;;;;;;11.63;3.40;;;16.60;99.90;;;;;;2075344;28;20041;-75
2023/09/19 03:44:41;;;;;;;8.02;2.83;;;16.60;99.90;;;;;;2076955;28;20060;-75
2023/09/19 03:45:42;;;;;;;14.15;3.25;;;16.60;99.90;;;;;;2076664;28;20049;-75
2023/09/19 03:46:42;;;;;;;8.27;2.78;;;16.60;99.90;;;;;;2076848;28;20026;-75
2023/09/19 03:47:43;;;;;;;13.77;3.20;;;16.60;99.90;;;;;;2075958;28;20449;-75
2023/09/19 03:48:43;;;;;;;12.68;3.13;;;16.60;99.90;;;;;;2076846;28;20040;-74
2023/09/19 03:49:44;;;;;;;10.65;3.13;;;16.60;99.90;;;;;;2074930;28;20084;-75
2023/09/19 03:50:45;;;;;;;9.35;2.70;;;16.60;99.90;;;;;;2077401;28;20029;-75
2023/09/19 03:51:46;;;;;;;7.38;2.75;;;16.60;99.90;;;;;;2077177;28;20060;-75
2023/09/19 03:52:46;;;;;;;10.40;2.90;;;16.60;99.90;;;;;;2069180;28;20026;-75
2023/09/19 03:53:49;;;;;;;12.10;3.47;;;16.60;99.90;;;;;;2059582;28;20557;-75
2023/09/19 03:54:49;;;;;;;9.65;3.28;;;16.60;99.90;;;;;;2066445;28;20022;-76
2023/09/19 03:55:50;;;;;;;9.23;2.72;;;16.60;99.90;;;;;;2076135;28;20018;-74
2023/09/19 03:56:50;;;;;;;10.68;2.95;;;16.60;99.90;;;;;;2077505;28;20036;-74
2023/09/19 03:57:52;;;;;;;7.95;3.00;;;16.60;99.90;;;;;;2075850;28;20032;-75
2023/09/19 03:58:53;;;;;;;13.38;2.78;;;16.60;99.90;;;;;;2077254;28;20056;-74
2023/09/19 03:59:54;;;;;;;7.72;2.75;;;16.60;99.90;;;;;;2074964;28;20025;-75
2023/09/19 04:00:58;;;;;;;8.40;2.83;;;16.60;99.90;;;;;;2075915;28;20078;-74
2023/09/19 04:01:59;;;;;;;9.73;3.40;;;16.60;99.90;;;;;;2067475;28;20022;-75
2023/09/19 04:03:02;;;;;;;9.65;3.10;;;16.50;99.90;;;;;;2068972;28;20029;-75
2023/09/19 04:04:08;;;;;;;7.90;2.65;;;16.60;99.90;;;;;;2074634;28;20033;-75
2023/09/19 04:05:10;;;;;;;10.43;2.60;;;16.60;99.90;;;;;;2076491;28;20021;-75
2023/09/19 04:06:11;;;;;;;8.68;3.10;;;16.60;99.90;;;;;;2069018;28;20087;-75
2023/09/19 04:07:12;;;;;;;7.63;2.60;;;16.60;99.90;;;;;;2071006;28;20380;-74
2023/09/19 04:08:14;;;;;;;7.15;2.30;;;16.50;99.90;;;;;;2072159;28;20026;-75
2023/09/19 04:09:14;;;;;;;9.77;3.17;;;16.50;99.90;;;;;;2070589;28;20072;-75
2023/09/19 04:10:15;;;;;;;7.88;2.92;;;16.50;99.90;;;;;;2076769;28;20108;-75
2023/09/19 04:11:16;;;;;;;10.32;3.00;;;16.50;99.90;;;;;;2069880;28;20033;-75
2023/09/19 04:12:16;;;;;;;9.63;3.33;;;16.50;99.90;;;;;;2069254;28;20040;-75
2023/09/19 04:13:17;;;;;;;12.43;2.70;;;16.50;99.90;;;;;;2079260;28;20041;-74
2023/09/19 04:14:17;;;;;;;8.75;2.50;;;16.50;99.90;;;;;;2077829;28;20441;-75
2023/09/19 04:15:18;;;;;;;7.88;2.70;;;16.50;99.90;;;;;;2075383;28;20061;-75
2023/09/19 04:16:19;;;;;;;9.55;2.88;;;16.50;99.90;;;;;;2078637;28;20484;-75
2023/09/19 04:17:20;;;;;;;9.05;2.78;;;16.50;99.90;;;;;;2078787;28;20373;-74
2023/09/19 04:18:23;;;;;;;9.55;3.13;;;16.50;99.90;;;;;;2070022;28;20082;-75
2023/09/19 04:19:23;;;;;;;11.07;2.95;;;16.50;99.90;;;;;;2069405;28;20033;-75
2023/09/19 04:20:24;;;;;;;8.10;2.50;;;16.50;99.90;;;;;;2077266;28;20037;-75
2023/09/19 04:21:25;;;;;;;9.48;2.85;;;16.50;99.90;;;;;;2070796;28;20018;-75
2023/09/19 04:22:25;;;;;;;13.60;3.60;;;16.50;99.90;;;;;;2068884;28;20034;-75
2023/09/19 04:23:26;;;;;;;12.40;3.40;;;16.40;99.90;;;;;;2079011;28;20033;-75
2023/09/19 04:24:27;;;;;;;7.18;2.60;;;16.50;99.90;;;;;;2078766;28;20564;-75
2023/09/19 04:25:27;;;;;;;8.05;2.72;;;16.50;99.90;;;;;;2078293;28;20021;-75
2023/09/19 04:26:28;;;;;;;11.23;3.20;;;16.40;99.90;;;;;;2076023;28;20013;-75
2023/09/19 04:27:28;;;;;;;9.98;3.00;;;16.40;99.90;;;;;;2077561;28;20033;-75
2023/09/19 04:28:29;;;;;;;14.35;3.08;;;16.40;99.90;;;;;;2078724;28;20055;-75
2023/09/19 04:29:30;;;;;;;10.77;3.00;;;16.40;99.90;;;;;;2077262;28;20408;-75
2023/09/19 04:30:30;;;;;;;9.25;2.97;;;16.40;99.90;;;;;;2076609;28;20033;-75
2023/09/19 04:31:31;;;;;;;8.50;2.55;;;16.40;99.90;;;;;;2078214;28;20025;-74
2023/09/19 04:32:32;;;;;;;9.10;2.40;;;16.40;99.90;;;;;;2077553;28;20037;-75
2023/09/19 04:33:35;;;;;;;8.57;3.22;;;16.40;99.90;;;;;;2077621;28;20017;-75
2023/09/19 04:34:35;;;;;;;10.00;2.97;;;16.40;99.90;;;;;;2077867;28;20088;-75
2023/09/19 04:35:36;;;;;;;12.85;2.88;;;16.40;99.90;;;;;;2077544;28;20026;-74
2023/09/19 04:36:36;;;;;;;12.50;3.55;;;16.40;99.90;;;;;;2072310;28;20029;-75
2023/09/19 04:37:41;;;;;;;9.23;3.30;;;16.40;99.90;;;;;;2068763;28;20124;-75
2023/09/19 04:38:42;;;;;;;9.73;2.70;;;16.40;99.90;;;;;;2074685;28;20059;-75
2023/09/19 04:39:42;;;;;;;11.15;3.45;;;16.40;99.90;;;;;;2077088;28;20030;-75
2023/09/19 04:40:43;;;;;;;7.95;3.05;;;16.40;99.90;;;;;;2076010;28;20124;-75
2023/09/19 04:41:44;;;;;;;11.85;2.72;;;16.40;99.90;;;;;;2076969;28;20450;-75
2023/09/19 04:42:52;;;;;;;8.55;2.80;;;16.40;99.90;;;;;;2066363;28;20040;-75
2023/09/19 04:43:53;;;;;;;12.20;2.92;;;16.40;99.90;;;;;;2067224;28;20417;-74
2023/09/19 04:44:54;;;;;;;9.05;2.72;;;16.30;99.90;;;;;;2070365;28;20073;-75
2023/09/19 04:45:55;;;;;;;13.50;3.00;;;16.40;99.90;;;;;;2077468;28;20030;-75
2023/09/19 04:46:56;;;;;;;9.75;3.08;;;16.40;99.90;;;;;;2076188;28;20128;-75
2023/09/19 04:47:57;;;;;;;12.15;2.80;;;16.30;99.90;;;;;;2077980;28;20583;-75
2023/09/19 04:48:57;;;;;;;11.70;2.95;;;16.40;99.90;;;;;;2076099;28;20033;-75
2023/09/19 04:49:59;;;;;;;11.82;3.30;;;16.30;99.90;;;;;;2078797;28;20022;-75
2023/09/19 04:50:59;;;;;;;10.77;3.42;;;16.30;99.90;;;;;;2068835;28;20077;-75
2023/09/19 04:52:00;;;;;;;10.55;3.10;;;16.30;99.90;;;;;;2067649;28;20018;-74
2023/09/19 04:53:01;;;;;;;7.22;2.88;;;16.30;99.90;;;;;;2067286;28;20920;-75
2023/09/19 04:54:02;;;;;;;12.88;3.33;;;16.30;99.90;;;;;;2068418;28;20018;-75
2023/09/19 04:55:03;;;;;;;8.60;3.10;;;16.30;99.90;;;;;;2076778;28;20021;-75
2023/09/19 04:56:04;;;;;;;8.27;2.90;;;16.30;99.90;;;;;;2078006;28;20022;-75
2023/09/19 04:57:05;;;;;;;13.85;3.25;;;16.30;99.90;;;;;;2078142;28;20034;-75
2023/09/19 04:58:06;;;;;;;9.15;3.33;;;16.30;99.90;;;;;;2077426;28;20026;-75
2023/09/19 04:59:06;;;;;;;8.55;2.53;;;16.30;99.90;;;;;;2077405;28;20124;-75
2023/09/19 05:00:12;;;;;;;8.48;2.80;;;16.30;99.90;;;;;;2077831;28;20052;-75
2023/09/19 05:01:15;;;;;;;9.20;2.80;;;16.30;99.90;;;;;;2067233;28;21584;-75
2023/09/19 05:02:15;;;;;;;13.38;3.78;;;16.30;99.90;;;;;;2070507;28;20565;-75
2023/09/19 05:03:16;;;;;;;10.23;3.05;;;16.30;99.90;;;;;;2078782;28;20564;-75
2023/09/19 05:04:17;;;;;;;9.60;2.78;;;16.30;99.90;;;;;;2077016;28;20067;-75
2023/09/19 05:05:18;;;;;;;7.82;2.85;;;16.30;99.90;;;;;;2069692;28;20062;-75
2023/09/19 05:06:21;;;;;;;10.05;2.85;;;16.30;99.90;;;;;;2069594;28;20028;-75
2023/09/19 05:07:25;;;;;;;8.93;2.63;;;16.30;99.90;;;;;;2067638;28;20030;-75
2023/09/19 05:08:26;;;;;;;9.65;2.88;;;16.30;99.90;;;;;;2067076;28;20642;-75
2023/09/19 05:09:27;;;;;;;7.78;2.80;;;16.30;99.90;;;;;;2076559;28;20029;-75
2023/09/19 05:10:27;;;;;;;7.80;2.65;;;16.30;99.90;;;;;;2076758;28;20041;-74
2023/09/19 05:11:30;;;;;;;10.82;2.72;;;16.30;99.90;;;;;;2079529;28;20124;-74
2023/09/19 05:12:35;;;;;;;10.10;3.10;;;16.30;99.90;;;;;;2068936;28;20022;-74
2023/09/19 05:13:35;;;;;;;10.48;3.60;;;16.30;99.90;;;;;;2068712;28;20026;-75
2023/09/19 05:14:36;;;;;;;11.88;3.15;;;16.30;99.90;;;;;;2068757;28;20046;-76
2023/09/19 05:15:36;;;;;;;9.93;3.15;;;16.30;99.90;;;;;;2069641;28;20153;-75
2023/09/19 05:16:37;;;;;;;5.95;2.40;;;16.30;99.90;;;;;;2069020;28;20022;-75
2023/09/19 05:17:38;;;;;;;9.13;3.20;;;16.30;99.90;;;;;;2076293;28;20026;-75
2023/09/19 05:18:39;;;;;;;10.23;3.22;;;16.30;99.90;;;;;;2068770;28;20481;-75
2023/09/19 05:19:40;;;;;;;13.85;3.58;;;16.30;99.90;;;;;;2069799;28;20148;-75
2023/09/19 05:20:40;;;;;;;15.57;3.75;;;16.30;99.90;;;;;;2077187;28;20399;-74
2023/09/19 05:21:41;;;;;;;8.85;2.95;;;16.30;99.90;;;;;;2077395;28;20022;-75
2023/09/19 05:22:43;;;;;;;7.75;2.88;;;16.30;99.90;;;;;;2068084;28;20018;-74
2023/09/19 05:23:43;;;;;;;9.20;2.92;;;16.30;99.90;;;;;;2068690;28;20400;-75
2023/09/19 05:24:47;;;;;;;14.10;3.88;;;16.30;99.90;;;;;;2077436;28;20040;-75
2023/09/19 05:25:48;;;;;;;10.77;2.83;;;16.40;99.90;;;;;;2078220;28;20108;-74
2023/09/19 05:26:49;;;;;;;11.18;2.83;;;16.30;99.90;;;;;;2077032;28;20492;-75
2023/09/19 05:27:52;;;;;;;9.52;3.08;;;16.30;99.90;;;;;;2077548;28;20030;-75